Time;durP1;ratioP1;P1;durP2;ratioP2;P2;SDS_P1;SDS_P2;PMS_P1;PMS_P2;Temp;Humidity;BMP_temperature;BMP_pressure;BME280_temperature;BME280_humidity;BME280_pressure;Samples;Min_cycle;Max_cycle;Signal;HPM_P1;HPM_P2
2022/10/23 00:00:54;;;;;;;23.83;3.60;;;14.00;99.90;;;;;;5112766;28;20413;-37
2022/10/23 00:03:20;;;;;;;6.37;3.20;;;14.10;99.90;;;;;;5112043;28;20536;-37
2022/10/23 00:05:46;;;;;;;3.97;2.27;;;14.10;99.90;;;;;;5112533;28;20187;-37
2022/10/23 00:08:11;;;;;;;5.23;2.07;;;14.10;99.90;;;;;;5112373;28;20207;-37
2022/10/23 00:10:40;;;;;;;5.33;2.80;;;14.10;99.90;;;;;;5112147;28;20233;-37
2022/10/23 00:13:06;;;;;;;6.80;3.33;;;14.10;99.90;;;;;;5112351;28;20232;-38
2022/10/23 00:15:34;;;;;;;6.23;2.60;;;14.00;99.90;;;;;;5112405;28;20414;-37
2022/10/23 00:18:00;;;;;;;4.90;2.73;;;14.10;99.90;;;;;;5112236;28;20214;-37
2022/10/23 00:20:26;;;;;;;5.20;2.83;;;14.10;99.90;;;;;;5111933;28;20417;-38
2022/10/23 00:22:51;;;;;;;7.93;4.03;;;14.20;99.90;;;;;;5112042;28;20191;-37
2022/10/23 00:25:17;;;;;;;4.17;2.43;;;14.20;99.90;;;;;;5112200;28;20195;-37
2022/10/23 00:27:43;;;;;;;5.30;2.87;;;14.20;99.90;;;;;;5111982;28;20579;-37
2022/10/23 00:30:10;;;;;;;2.77;2.33;;;14.20;99.90;;;;;;5111750;28;20658;-38
2022/10/23 00:32:36;;;;;;;6.60;2.83;;;14.20;99.90;;;;;;5111712;28;20418;-37
2022/10/23 00:35:02;;;;;;;7.30;2.70;;;14.20;99.90;;;;;;5112205;28;20412;-38
2022/10/23 00:37:27;;;;;;;3.87;2.90;;;14.20;99.90;;;;;;5111843;28;20401;-38
2022/10/23 00:39:53;;;;;;;5.03;2.73;;;14.30;99.90;;;;;;5111548;28;20612;-37
2022/10/23 00:42:20;;;;;;;6.63;2.70;;;14.30;99.90;;;;;;5111635;28;20271;-37
2022/10/23 00:44:45;;;;;;;6.30;2.63;;;14.30;99.90;;;;;;5111688;28;20661;-38
2022/10/23 00:47:12;;;;;;;5.47;2.57;;;14.40;99.90;;;;;;5111621;28;20468;-37
2022/10/23 00:49:39;;;;;;;5.60;2.60;;;14.40;99.90;;;;;;5111409;28;20180;-37
2022/10/23 00:52:08;;;;;;;5.53;3.27;;;14.30;99.90;;;;;;5111728;28;20410;-37
2022/10/23 00:54:38;;;;;;;6.53;2.43;;;14.30;99.90;;;;;;5110848;28;20463;-37
2022/10/23 00:57:08;;;;;;;5.87;3.00;;;14.20;99.90;;;;;;5110158;28;20405;-37
2022/10/23 00:59:34;;;;;;;5.50;2.73;;;14.20;99.90;;;;;;5110996;28;20433;-38
2022/10/23 01:02:00;;;;;;;8.10;3.40;;;14.20;99.90;;;;;;5111310;28;20449;-37
2022/10/23 01:04:27;;;;;;;4.30;2.97;;;14.20;99.90;;;;;;5111123;28;20508;-37
2022/10/23 01:07:32;;;;;;;5.07;2.97;;;14.20;99.90;;;;;;5111386;28;20207;-37
2022/10/23 01:10:00;;;;;;;5.80;2.17;;;14.30;99.90;;;;;;5088785;28;20425;-37
2022/10/23 01:12:57;;;;;;;5.93;3.20;;;14.30;99.90;;;;;;5109906;28;20463;-38
2022/10/23 01:15:46;;;;;;;5.90;3.27;;;14.30;99.90;;;;;;5111122;28;20409;-37
2022/10/23 01:18:26;;;;;;;5.83;2.53;;;14.30;99.90;;;;;;5110518;28;20432;-39
2022/10/23 01:21:15;;;;;;;3.70;2.40;;;14.30;99.90;;;;;;5110861;28;20426;-37
2022/10/23 01:24:08;;;;;;;6.53;3.00;;;14.30;99.90;;;;;;5109605;28;20998;-37
2022/10/23 01:26:43;;;;;;;5.33;3.10;;;14.30;99.90;;;;;;5110765;28;20470;-37
2022/10/23 01:29:33;;;;;;;3.90;2.20;;;14.30;99.90;;;;;;5110668;28;20436;-38
2022/10/23 01:32:08;;;;;;;8.13;2.90;;;14.30;99.90;;;;;;5109576;28;20406;-37
2022/10/23 01:34:42;;;;;;;4.70;3.07;;;14.30;99.90;;;;;;5110657;28;20397;-37
2022/10/23 01:37:12;;;;;;;3.97;2.83;;;14.30;99.90;;;;;;5110275;28;20410;-38
2022/10/23 01:39:44;;;;;;;4.90;2.80;;;14.30;99.90;;;;;;5110388;28;20418;-37
2022/10/23 01:42:15;;;;;;;3.10;2.43;;;14.30;99.90;;;;;;5110713;28;20507;-37
2022/10/23 01:44:58;;;;;;;7.00;3.10;;;14.30;99.90;;;;;;5110566;28;20419;-37
2022/10/23 01:47:27;;;;;;;6.20;2.73;;;14.30;99.90;;;;;;5110359;28;20477;-37
2022/10/23 01:49:56;;;;;;;2.80;2.43;;;14.40;99.90;;;;;;5110421;28;20416;-37
2022/10/23 01:52:22;;;;;;;4.50;2.60;;;14.30;99.90;;;;;;5110477;28;20488;-37
2022/10/23 01:54:50;;;;;;;5.97;2.60;;;14.30;99.90;;;;;;5109792;28;20432;-37
2022/10/23 01:57:18;;;;;;;7.10;2.90;;;14.30;99.90;;;;;;5110546;28;20417;-37
2022/10/23 01:59:49;;;;;;;3.27;2.97;;;14.30;99.90;;;;;;5109937;28;20418;-37
2022/10/23 02:02:17;;;;;;;7.70;3.17;;;14.30;99.90;;;;;;5110656;28;20497;-37
2022/10/23 02:04:58;;;;;;;8.07;2.80;;;14.20;99.90;;;;;;5110056;28;20496;-37
2022/10/23 02:07:24;;;;;;;5.50;2.93;;;14.30;99.90;;;;;;5110223;28;20457;-37
2022/10/23 02:09:50;;;;;;;5.70;2.60;;;14.30;99.90;;;;;;5108686;28;20916;-37
2022/10/23 02:12:40;;;;;;;7.17;2.90;;;14.30;99.90;;;;;;5110371;28;20540;-37
2022/10/23 02:15:12;;;;;;;4.30;2.53;;;14.30;99.90;;;;;;5110319;28;20435;-37
2022/10/23 02:18:04;;;;;;;4.50;2.70;;;14.30;99.90;;;;;;5110481;28;20406;-37
2022/10/23 02:20:39;;;;;;;5.57;2.53;;;14.30;99.90;;;;;;5109970;28;20406;-37
2022/10/23 02:23:20;;;;;;;3.50;2.40;;;14.30;99.90;;;;;;5109920;28;20416;-37
2022/10/23 02:26:13;;;;;;;3.60;2.20;;;14.30;99.90;;;;;;5110209;28;20405;-37
2022/10/23 02:28:46;;;;;;;7.90;2.33;;;14.30;99.90;;;;;;5108648;28;21136;-37
2022/10/23 02:31:14;;;;;;;6.13;2.60;;;14.30;99.90;;;;;;5110054;28;20434;-37
2022/10/23 02:33:41;;;;;;;3.73;2.60;;;14.30;99.90;;;;;;5109905;28;20402;-37
2022/10/23 02:36:07;;;;;;;3.83;2.03;;;14.30;99.90;;;;;;5110078;28;20544;-37
2022/10/23 02:38:51;;;;;;;2.80;2.43;;;14.30;99.90;;;;;;5109411;28;20815;-37
2022/10/23 02:41:35;;;;;;;11.07;2.70;;;14.30;99.90;;;;;;5108890;28;20410;-37
2022/10/23 02:44:29;;;;;;;3.77;2.20;;;14.30;99.90;;;;;;5109347;28;20405;-37
2022/10/23 02:47:16;;;;;;;3.20;2.40;;;14.30;99.90;;;;;;5110035;28;20556;-37
2022/10/23 02:50:05;;;;;;;4.67;2.67;;;14.30;99.90;;;;;;5111753;28;20445;-38
2022/10/23 02:53:00;;;;;;;2.80;2.27;;;14.30;99.90;;;;;;5113925;28;20831;-38
2022/10/23 02:56:03;;;;;;;4.93;2.50;;;14.30;99.90;;;;;;5101917;28;20453;-37
2022/10/23 02:59:01;;;;;;;4.10;1.70;;;14.30;99.90;;;;;;5113372;28;20419;-38
2022/10/23 03:01:32;;;;;;;4.23;2.33;;;14.20;99.90;;;;;;5068383;27;20897;-37
2022/10/23 03:04:02;;;;;;;3.90;1.90;;;14.10;99.90;;;;;;5113393;28;20401;-37
2022/10/23 03:06:27;;;;;;;2.10;1.80;;;14.20;99.90;;;;;;5113433;28;20453;-37
2022/10/23 03:09:05;;;;;;;3.83;2.23;;;14.20;99.90;;;;;;5113252;28;20432;-38
2022/10/23 03:11:31;;;;;;;4.60;2.47;;;14.20;99.90;;;;;;5113694;28;20237;-38
2022/10/23 03:13:57;;;;;;;3.80;2.23;;;14.10;99.90;;;;;;5113278;28;20496;-38
2022/10/23 03:16:22;;;;;;;2.30;2.10;;;14.10;99.90;;;;;;5113607;28;20587;-37
2022/10/23 03:18:48;;;;;;;2.80;2.13;;;14.10;99.90;;;;;;5113093;28;20200;-37
2022/10/23 03:21:13;;;;;;;5.57;2.30;;;14.10;99.90;;;;;;5113125;28;20230;-38
2022/10/23 03:23:39;;;;;;;2.93;2.10;;;14.10;99.90;;;;;;5113112;28;20292;-37
2022/10/23 03:26:05;;;;;;;3.00;2.10;;;14.10;99.90;;;;;;5113363;28;20172;-37
2022/10/23 03:28:31;;;;;;;2.90;1.83;;;14.10;99.90;;;;;;5111757;28;20190;-38
2022/10/23 03:30:56;;;;;;;3.87;2.37;;;14.10;99.90;;;;;;5113296;28;20384;-38
2022/10/23 03:33:22;;;;;;;8.23;3.07;;;14.10;99.90;;;;;;5112998;28;20183;-37
2022/10/23 03:35:48;;;;;;;2.37;2.17;;;14.00;99.90;;;;;;5112960;28;20211;-37
2022/10/23 03:38:14;;;;;;;5.57;3.57;;;14.00;99.90;;;;;;5113086;28;20708;-37
2022/10/23 03:40:41;;;;;;;3.60;1.97;;;14.00;99.90;;;;;;5112855;28;20414;-37
2022/10/23 03:43:06;;;;;;;3.63;2.30;;;14.00;99.90;;;;;;5111431;28;20406;-38
2022/10/23 03:45:32;;;;;;;5.57;1.90;;;14.00;99.90;;;;;;5113152;28;20489;-37
2022/10/23 03:47:58;;;;;;;1.93;1.60;;;14.00;99.90;;;;;;5112750;27;20212;-37
2022/10/23 03:50:23;;;;;;;4.10;2.20;;;14.00;99.90;;;;;;5112532;28;20630;-38
2022/10/23 03:52:49;;;;;;;6.00;2.23;;;14.00;99.90;;;;;;5112480;28;20405;-37
2022/10/23 03:55:15;;;;;;;3.63;2.30;;;14.10;99.90;;;;;;5111962;28;20184;-37
2022/10/23 03:57:41;;;;;;;5.30;2.53;;;14.10;99.90;;;;;;5112642;28;20408;-37
2022/10/23 04:00:07;;;;;;;3.73;2.37;;;14.20;99.90;;;;;;5112080;28;20418;-38
2022/10/23 04:02:33;;;;;;;5.47;2.13;;;14.10;99.90;;;;;;5112554;28;20184;-38
2022/10/23 04:04:59;;;;;;;7.23;2.00;;;14.10;99.90;;;;;;5112210;28;20764;-37
2022/10/23 04:07:24;;;;;;;4.17;2.00;;;14.10;99.90;;;;;;5112508;28;20211;-37
2022/10/23 04:09:50;;;;;;;2.80;1.90;;;14.20;99.90;;;;;;5112222;27;20308;-37
2022/10/23 04:12:16;;;;;;;2.70;1.87;;;14.30;99.90;;;;;;5111313;28;20178;-37
2022/10/23 04:14:42;;;;;;;2.97;2.30;;;14.30;99.90;;;;;;5112123;28;20545;-37
2022/10/23 04:17:07;;;;;;;4.87;2.40;;;14.40;99.90;;;;;;5112611;28;20414;-38
2022/10/23 04:19:33;;;;;;;4.47;2.00;;;14.40;99.90;;;;;;5111501;28;20275;-37
2022/10/23 04:21:59;;;;;;;5.50;2.10;;;14.40;99.90;;;;;;5112303;28;20182;-38
2022/10/23 04:24:25;;;;;;;6.23;2.27;;;14.50;99.90;;;;;;5111991;28;20184;-37
2022/10/23 04:26:51;;;;;;;4.40;2.30;;;14.50;99.90;;;;;;5112229;28;20640;-37
2022/10/23 04:29:17;;;;;;;3.60;1.87;;;14.40;99.90;;;;;;5111912;28;20471;-38
2022/10/23 04:31:43;;;;;;;5.47;2.77;;;14.50;99.90;;;;;;5111961;28;20880;-37
2022/10/23 04:34:08;;;;;;;3.53;2.30;;;14.50;99.90;;;;;;5111670;28;20409;-38
2022/10/23 04:36:34;;;;;;;3.87;2.07;;;14.50;99.90;;;;;;5111904;28;20184;-37
2022/10/23 04:39:00;;;;;;;3.77;2.20;;;14.50;99.90;;;;;;5111552;28;20667;-38
2022/10/23 04:41:26;;;;;;;6.47;2.77;;;14.50;99.90;;;;;;5111740;28;20540;-38
2022/10/23 04:43:51;;;;;;;8.30;2.13;;;14.60;99.90;;;;;;5111629;28;20520;-37
2022/10/23 04:46:17;;;;;;;3.27;2.13;;;14.60;99.90;;;;;;5111729;28;20179;-37
2022/10/23 04:48:42;;;;;;;3.70;2.53;;;14.60;99.90;;;;;;5111077;28;20183;-37
2022/10/23 04:51:09;;;;;;;3.70;2.03;;;14.50;99.90;;;;;;5111796;28;20175;-37
2022/10/23 04:53:35;;;;;;;3.40;2.43;;;14.50;99.90;;;;;;5111197;28;20207;-37
2022/10/23 04:56:01;;;;;;;2.37;1.70;;;14.50;99.90;;;;;;5110751;28;20442;-37
2022/10/23 04:58:28;;;;;;;3.30;2.07;;;14.40;99.90;;;;;;5111192;28;20186;-37
2022/10/23 05:00:54;;;;;;;3.07;1.80;;;14.40;99.90;;;;;;5111608;28;20509;-37
2022/10/23 05:03:21;;;;;;;7.20;1.90;;;14.40;99.90;;;;;;5110814;28;20413;-37
2022/10/23 05:05:46;;;;;;;4.00;2.10;;;14.50;99.90;;;;;;5111464;28;20184;-37
2022/10/23 05:08:12;;;;;;;3.50;2.03;;;14.50;99.90;;;;;;5109913;28;20604;-38
2022/10/23 05:10:40;;;;;;;4.30;2.03;;;14.50;99.90;;;;;;5111151;28;20225;-37
2022/10/23 05:13:06;;;;;;;4.27;2.27;;;14.50;99.90;;;;;;5110256;28;20406;-37
2022/10/23 05:15:32;;;;;;;4.27;2.10;;;14.50;99.90;;;;;;5111242;28;20493;-37
2022/10/23 05:18:06;;;;;;;2.83;2.20;;;14.50;99.90;;;;;;5110949;28;20417;-37
2022/10/23 05:20:34;;;;;;;6.80;2.33;;;14.50;99.90;;;;;;5110663;28;20950;-38
2022/10/23 05:23:01;;;;;;;4.57;2.17;;;14.50;99.90;;;;;;5110874;28;20418;-38
2022/10/23 05:25:29;;;;;;;2.40;2.10;;;14.50;99.90;;;;;;5111004;28;20406;-37
2022/10/23 05:27:55;;;;;;;5.97;2.10;;;14.50;99.90;;;;;;5111039;28;20448;-37
2022/10/23 05:30:20;;;;;;;5.53;1.80;;;14.60;99.90;;;;;;5110423;28;20406;-37
2022/10/23 05:32:47;;;;;;;4.00;2.60;;;14.50;99.90;;;;;;5110728;28;20256;-37
2022/10/23 05:35:18;;;;;;;3.10;2.10;;;14.50;99.90;;;;;;5110773;28;20178;-38
2022/10/23 05:37:47;;;;;;;4.80;2.47;;;14.60;99.90;;;;;;5109535;28;20496;-37
2022/10/23 05:40:12;;;;;;;5.13;2.20;;;14.60;99.90;;;;;;5110475;28;20406;-38
2022/10/23 05:42:38;;;;;;;4.50;1.90;;;14.60;99.90;;;;;;5109174;28;20423;-38
2022/10/23 05:45:04;;;;;;;4.67;2.37;;;14.60;99.90;;;;;;5110832;28;20764;-37
2022/10/23 05:47:30;;;;;;;4.13;2.50;;;14.60;99.90;;;;;;5110521;28;20669;-38
2022/10/23 05:49:56;;;;;;;2.47;1.87;;;14.70;99.90;;;;;;5110250;28;20493;-37
2022/10/23 05:52:23;;;;;;;2.83;2.07;;;14.70;99.90;;;;;;5109109;28;20179;-37
2022/10/23 05:54:51;;;;;;;10.20;2.50;;;14.80;99.90;;;;;;5109456;28;20416;-37
2022/10/23 05:57:18;;;;;;;2.87;1.97;;;14.80;99.90;;;;;;5110160;28;20468;-37
2022/10/23 05:59:43;;;;;;;4.80;2.10;;;14.80;99.90;;;;;;5110244;28;20417;-38
2022/10/23 06:02:09;;;;;;;5.50;2.47;;;14.80;99.90;;;;;;5110409;28;20414;-37
2022/10/23 06:04:35;;;;;;;3.40;2.10;;;14.80;99.90;;;;;;5109001;28;20424;-38
2022/10/23 06:07:02;;;;;;;6.10;2.30;;;14.80;99.90;;;;;;5108987;28;20211;-37
2022/10/23 06:09:28;;;;;;;5.17;2.53;;;14.80;99.90;;;;;;5109948;28;20175;-37
2022/10/23 06:11:53;;;;;;;2.20;1.70;;;14.80;99.90;;;;;;5110323;28;20738;-37
2022/10/23 06:14:19;;;;;;;3.67;2.40;;;14.80;99.90;;;;;;5109948;28;20524;-37
2022/10/23 06:16:45;;;;;;;4.43;2.20;;;14.80;99.90;;;;;;5110478;28;20175;-37
2022/10/23 06:19:11;;;;;;;5.77;2.00;;;14.80;99.90;;;;;;5109904;28;20179;-37
2022/10/23 06:21:38;;;;;;;3.20;1.90;;;14.80;99.90;;;;;;5110359;28;20274;-37
2022/10/23 06:24:05;;;;;;;2.23;1.80;;;14.80;99.90;;;;;;5111563;28;20529;-37
2022/10/23 06:26:30;;;;;;;5.73;2.63;;;14.80;99.90;;;;;;5114423;28;20463;-37
2022/10/23 06:28:56;;;;;;;3.70;2.40;;;14.70;99.90;;;;;;5114170;28;20413;-37
2022/10/23 06:31:25;;;;;;;2.17;1.97;;;14.70;99.90;;;;;;5114476;28;20172;-37
2022/10/23 06:33:51;;;;;;;5.23;2.10;;;14.70;99.90;;;;;;5112902;28;20833;-37
2022/10/23 06:36:17;;;;;;;3.60;1.90;;;14.80;99.90;;;;;;5114393;28;20397;-37
2022/10/23 06:38:43;;;;;;;3.40;2.47;;;14.80;99.90;;;;;;5113313;28;20425;-37
2022/10/23 06:41:17;;;;;;;6.07;2.57;;;14.80;99.90;;;;;;5112702;28;20175;-37
2022/10/23 06:43:46;;;;;;;6.00;2.40;;;14.80;99.90;;;;;;5113295;28;20175;-37
2022/10/23 06:46:11;;;;;;;6.97;2.13;;;14.80;99.90;;;;;;5114100;28;20401;-38
2022/10/23 06:48:37;;;;;;;3.83;2.30;;;14.90;99.90;;;;;;5113629;28;20460;-38
2022/10/23 06:51:06;;;;;;;9.63;2.37;;;14.90;99.90;;;;;;5113936;28;20179;-37
2022/10/23 06:53:32;;;;;;;2.23;2.03;;;14.90;99.90;;;;;;5112438;28;20537;-38
2022/10/23 06:55:59;;;;;;;6.77;2.50;;;15.00;99.90;;;;;;5112970;28;20558;-37
2022/10/23 06:58:25;;;;;;;2.20;2.00;;;15.00;99.90;;;;;;5113453;28;20413;-38
2022/10/23 07:00:50;;;;;;;4.57;1.83;;;15.00;99.90;;;;;;5113816;28;20425;-37
2022/10/23 07:03:16;;;;;;;5.00;2.03;;;15.00;99.90;;;;;;5113372;28;20184;-37
2022/10/23 07:05:43;;;;;;;5.43;1.80;;;15.10;99.90;;;;;;5113774;28;20188;-37
2022/10/23 07:08:10;;;;;;;3.73;1.90;;;15.00;99.90;;;;;;5113344;28;20235;-38
2022/10/23 07:10:35;;;;;;;6.33;1.87;;;15.10;99.90;;;;;;5113335;28;20401;-37
2022/10/23 07:13:02;;;;;;;2.50;1.97;;;15.10;99.90;;;;;;5113268;28;20412;-38
2022/10/23 07:15:28;;;;;;;5.70;1.90;;;15.10;99.90;;;;;;5113630;28;20410;-37
2022/10/23 07:17:55;;;;;;;4.47;2.10;;;15.10;99.90;;;;;;5113440;28;20424;-38
2022/10/23 07:20:20;;;;;;;3.20;1.70;;;15.10;99.90;;;;;;5113006;28;20416;-37
2022/10/23 07:22:51;;;;;;;3.60;2.17;;;15.10;99.90;;;;;;5113042;27;20512;-37
2022/10/23 07:25:17;;;;;;;6.03;1.70;;;15.10;99.90;;;;;;5111905;28;20413;-37
2022/10/23 07:27:43;;;;;;;6.70;2.00;;;15.20;99.90;;;;;;5112041;28;20941;-37
2022/10/23 07:30:09;;;;;;;6.07;1.83;;;15.20;99.90;;;;;;5112631;28;20263;-38
2022/10/23 07:32:35;;;;;;;4.20;1.80;;;15.20;99.90;;;;;;5113260;28;20226;-38
2022/10/23 07:35:00;;;;;;;1.67;1.50;;;15.20;99.90;;;;;;5112194;28;21064;-37
2022/10/23 07:37:28;;;;;;;3.03;1.90;;;15.30;99.90;;;;;;5113040;27;20234;-37
2022/10/23 07:39:54;;;;;;;3.67;1.47;;;15.30;99.90;;;;;;5111321;28;20164;-38
2022/10/23 07:42:20;;;;;;;2.83;1.90;;;15.30;99.90;;;;;;5112980;28;20443;-38
2022/10/23 07:44:45;;;;;;;5.97;2.03;;;15.40;99.90;;;;;;5112979;28;20191;-37
2022/10/23 07:47:11;;;;;;;3.40;1.60;;;15.40;99.90;;;;;;5112747;28;20252;-38
2022/10/23 07:49:37;;;;;;;3.13;1.87;;;15.40;99.90;;;;;;5111450;28;20180;-37
2022/10/23 07:52:04;;;;;;;2.40;1.93;;;15.40;99.90;;;;;;5112582;28;20185;-37
2022/10/23 07:54:30;;;;;;;2.40;1.80;;;15.40;99.90;;;;;;5112549;28;20184;-37
2022/10/23 07:56:57;;;;;;;4.47;1.80;;;15.50;99.90;;;;;;5110443;28;20410;-38
2022/10/23 07:59:22;;;;;;;5.37;2.33;;;15.50;99.90;;;;;;5112347;28;20171;-38
2022/10/23 08:01:48;;;;;;;2.00;1.73;;;15.50;99.90;;;;;;5112722;28;20414;-37
2022/10/23 08:04:14;;;;;;;7.77;2.07;;;15.50;99.90;;;;;;5112622;28;20182;-38
2022/10/23 08:06:39;;;;;;;3.60;1.83;;;15.50;99.90;;;;;;5112281;27;20310;-37
2022/10/23 08:09:05;;;;;;;2.83;1.73;;;15.50;99.90;;;;;;5110804;28;20576;-37
2022/10/23 08:11:34;;;;;;;5.60;2.13;;;15.50;99.90;;;;;;5112836;28;20188;-37
2022/10/23 08:14:04;;;;;;;4.60;2.07;;;15.60;99.90;;;;;;5110798;28;20215;-37
2022/10/23 08:16:34;;;;;;;2.40;1.73;;;15.60;99.90;;;;;;5112602;28;20409;-37
2022/10/23 08:19:00;;;;;;;4.70;1.83;;;15.60;99.90;;;;;;5111722;28;20500;-37
2022/10/23 08:21:26;;;;;;;2.30;1.53;;;15.70;99.90;;;;;;5112404;28;20450;-37
2022/10/23 08:23:54;;;;;;;6.23;2.10;;;15.70;99.90;;;;;;5111937;28;20448;-37
2022/10/23 08:26:20;;;;;;;4.20;1.80;;;15.80;99.90;;;;;;5112169;28;20261;-39
2022/10/23 08:28:46;;;;;;;3.80;2.77;;;15.90;99.90;;;;;;5111710;28;20426;-37
2022/10/23 08:31:14;;;;;;;3.17;1.70;;;16.00;99.90;;;;;;5112179;28;20460;-37
2022/10/23 08:33:40;;;;;;;3.30;1.70;;;16.00;99.90;;;;;;5111613;28;20594;-38
2022/10/23 08:36:21;;;;;;;3.43;2.00;;;16.10;99.90;;;;;;5111908;28;20437;-37
2022/10/23 08:38:48;;;;;;;3.17;1.67;;;16.20;99.90;;;;;;5093374;28;20409;-37
2022/10/23 08:41:25;;;;;;;2.30;1.60;;;16.40;99.90;;;;;;5111699;28;20409;-38
2022/10/23 08:43:59;;;;;;;4.40;2.30;;;16.60;99.90;;;;;;5111612;28;20405;-37
2022/10/23 08:46:30;;;;;;;4.13;1.50;;;16.70;99.90;;;;;;5110794;28;20413;-37
2022/10/23 08:49:15;;;;;;;2.97;1.63;;;16.90;99.90;;;;;;5111410;28;20414;-37
2022/10/23 08:51:43;;;;;;;2.47;1.50;;;17.00;99.90;;;;;;5111676;28;20466;-38
2022/10/23 08:54:18;;;;;;;6.03;1.80;;;17.10;99.90;;;;;;5111598;28;21057;-37
2022/10/23 08:56:52;;;;;;;2.83;1.33;;;17.20;99.90;;;;;;5110074;28;20414;-37
2022/10/23 08:59:49;;;;;;;4.27;2.00;;;17.30;99.90;;;;;;5111190;28;20405;-38
2022/10/23 09:02:45;;;;;;;2.03;1.40;;;17.40;99.90;;;;;;5094661;28;20430;-37
2022/10/23 09:05:33;;;;;;;2.90;1.43;;;17.50;99.90;;;;;;5100240;28;20425;-37
2022/10/23 09:08:14;;;;;;;2.60;1.60;;;17.60;99.90;;;;;;5110522;28;20477;-37
2022/10/23 09:11:13;;;;;;;2.97;1.23;;;17.70;99.90;;;;;;5111035;28;20487;-37
2022/10/23 09:14:06;;;;;;;2.80;1.50;;;17.70;99.90;;;;;;5109559;28;20412;-37
2022/10/23 09:16:51;;;;;;;2.87;1.53;;;17.70;99.90;;;;;;5111298;28;20408;-38
2022/10/23 09:19:19;;;;;;;4.10;1.73;;;17.70;99.90;;;;;;5110789;28;20820;-38
2022/10/23 09:21:49;;;;;;;4.13;1.40;;;17.70;99.90;;;;;;5110973;28;20416;-38
2022/10/23 09:24:18;;;;;;;4.50;2.27;;;17.80;99.90;;;;;;5109437;28;20516;-38
2022/10/23 09:26:48;;;;;;;2.53;1.40;;;17.80;99.90;;;;;;5111220;28;20543;-37
2022/10/23 09:29:24;;;;;;;4.37;1.80;;;17.90;99.90;;;;;;5109172;28;20398;-37
2022/10/23 09:31:55;;;;;;;2.23;1.60;;;17.80;99.90;;;;;;5110924;28;20460;-37
2022/10/23 09:34:24;;;;;;;4.90;2.23;;;17.80;99.90;;;;;;5110619;28;20409;-37
2022/10/23 09:37:02;;;;;;;3.90;1.30;;;17.90;99.90;;;;;;5109868;28;20409;-37
2022/10/23 09:39:34;;;;;;;2.77;1.60;;;17.80;99.90;;;;;;5110440;28;20744;-37
2022/10/23 09:42:12;;;;;;;4.60;1.40;;;17.90;99.90;;;;;;5110781;28;20441;-37
2022/10/23 09:44:47;;;;;;;3.97;1.60;;;17.80;99.90;;;;;;5110433;28;21142;-37
2022/10/23 09:47:22;;;;;;;1.20;1.10;;;17.80;99.90;;;;;;5110815;28;20861;-37
2022/10/23 09:49:51;;;;;;;2.30;1.47;;;17.80;99.90;;;;;;5110466;28;20459;-37
2022/10/23 09:52:21;;;;;;;3.23;1.67;;;17.80;99.90;;;;;;5110605;28;20498;-37
2022/10/23 09:54:57;;;;;;;3.27;1.50;;;17.80;99.90;;;;;;5109982;28;20406;-37
2022/10/23 09:57:42;;;;;;;3.20;1.20;;;17.80;99.90;;;;;;5108844;28;20416;-37
2022/10/23 10:00:23;;;;;;;4.03;1.20;;;17.80;99.90;;;;;;5110163;28;20420;-37
2022/10/23 10:03:03;;;;;;;3.90;1.60;;;17.80;99.90;;;;;;5110119;28;20479;-38
2022/10/23 10:05:31;;;;;;;3.47;1.50;;;17.80;99.90;;;;;;5110471;28;20420;-38
2022/10/23 10:08:19;;;;;;;3.27;1.40;;;17.80;99.90;;;;;;5109088;28;20477;-37
2022/10/23 10:10:50;;;;;;;2.20;1.30;;;17.80;99.90;;;;;;5110236;28;20409;-38
2022/10/23 10:13:31;;;;;;;1.80;1.70;;;17.90;99.90;;;;;;5110044;28;20566;-37
2022/10/23 10:16:26;;;;;;;3.70;1.40;;;17.90;99.90;;;;;;5110558;28;20414;-39
2022/10/23 10:19:16;;;;;;;4.40;1.50;;;18.00;99.90;;;;;;5109909;28;20870;-37
2022/10/23 10:21:54;;;;;;;3.57;1.70;;;17.90;99.90;;;;;;5109091;28;20425;-38
2022/10/23 10:24:33;;;;;;;3.00;1.50;;;18.00;99.90;;;;;;5110006;28;20504;-38
2022/10/23 10:27:36;;;;;;;4.17;1.60;;;18.00;99.90;;;;;;5110408;28;20452;-37
2022/10/23 10:30:12;;;;;;;2.37;1.30;;;18.10;99.90;;;;;;5109742;28;20420;-37
2022/10/23 10:32:46;;;;;;;1.63;1.30;;;18.10;99.90;;;;;;5110247;28;20412;-37
2022/10/23 10:35:24;;;;;;;4.23;1.50;;;18.10;99.90;;;;;;5110096;28;20401;-37
2022/10/23 10:38:17;;;;;;;2.33;1.43;;;18.10;99.90;;;;;;5110244;28;20433;-37
2022/10/23 10:41:16;;;;;;;2.40;1.60;;;18.20;99.90;;;;;;5108618;28;20409;-38
2022/10/23 10:44:01;;;;;;;5.17;1.10;;;18.10;99.90;;;;;;5109232;28;20429;-37
2022/10/23 10:46:49;;;;;;;2.60;1.47;;;18.20;99.90;;;;;;5109962;28;20780;-38
2022/10/23 10:49:58;;;;;;;4.87;1.80;;;18.20;99.90;;;;;;5109706;28;20397;-38
2022/10/23 10:52:38;;;;;;;6.20;1.50;;;18.20;99.90;;;;;;5109794;28;20458;-38
2022/10/23 10:55:30;;;;;;;2.77;1.03;;;18.20;99.90;;;;;;5108304;28;20409;-37
2022/10/23 10:58:02;;;;;;;3.90;1.90;;;18.20;99.90;;;;;;5108646;28;20419;-38
2022/10/23 11:00:30;;;;;;;2.90;1.50;;;18.10;99.90;;;;;;5109764;28;20897;-37
2022/10/23 11:03:17;;;;;;;3.53;1.60;;;18.20;99.90;;;;;;5109617;28;20922;-37
2022/10/23 11:05:47;;;;;;;3.57;1.17;;;18.10;99.90;;;;;;5109867;28;21052;-39
2022/10/23 11:08:23;;;;;;;21.27;2.47;;;18.20;99.90;;;;;;5109766;28;20549;-38
2022/10/23 11:10:55;;;;;;;4.10;1.40;;;18.20;99.90;;;;;;5112395;28;20412;-39
2022/10/23 11:13:24;;;;;;;2.67;1.30;;;18.20;99.90;;;;;;5113426;28;20448;-37
2022/10/23 11:15:51;;;;;;;1.40;1.30;;;18.30;99.90;;;;;;5113683;28;20413;-37
2022/10/23 11:18:24;;;;;;;3.20;1.43;;;18.20;99.90;;;;;;5113297;28;20440;-38
2022/10/23 11:20:59;;;;;;;2.13;1.20;;;18.30;99.90;;;;;;5113595;28;20428;-38
2022/10/23 11:23:49;;;;;;;1.77;1.13;;;18.30;99.90;;;;;;5113050;28;20918;-38
2022/10/23 11:26:41;;;;;;;3.80;1.73;;;18.40;99.90;;;;;;5113604;28;20474;-38
2022/10/23 11:29:12;;;;;;;6.77;1.60;;;18.40;99.90;;;;;;5112951;28;20780;-38
2022/10/23 11:32:15;;;;;;;3.60;1.17;;;18.40;99.90;;;;;;5113336;28;20409;-38
2022/10/23 11:34:50;;;;;;;1.57;1.30;;;18.50;99.90;;;;;;5112853;28;20407;-38
2022/10/23 11:37:18;;;;;;;3.43;1.40;;;18.50;99.90;;;;;;5113387;28;20405;-38
2022/10/23 11:40:00;;;;;;;2.43;1.20;;;18.60;99.90;;;;;;5112643;28;20812;-38
2022/10/23 11:42:37;;;;;;;5.03;1.27;;;18.60;99.90;;;;;;5113070;28;20432;-38
2022/10/23 11:45:23;;;;;;;7.13;1.40;;;18.60;99.90;;;;;;5112858;28;20425;-38
2022/10/23 11:48:03;;;;;;;2.90;1.80;;;18.60;99.90;;;;;;5112843;28;20461;-37
2022/10/23 11:50:43;;;;;;;1.30;1.20;;;18.60;99.90;;;;;;5112757;28;20409;-38
2022/10/23 11:53:37;;;;;;;3.70;1.50;;;18.60;99.90;;;;;;5112731;28;20902;-37
2022/10/23 11:56:05;;;;;;;4.90;1.60;;;18.60;99.90;;;;;;5111305;28;20432;-40
2022/10/23 11:58:55;;;;;;;5.90;1.43;;;18.70;99.90;;;;;;5112359;28;20432;-38
2022/10/23 12:01:58;;;;;;;1.50;1.20;;;18.80;99.90;;;;;;5112744;28;20421;-37
2022/10/23 12:04:29;;;;;;;2.10;1.10;;;18.80;99.90;;;;;;5068936;28;20424;-38
2022/10/23 12:07:01;;;;;;;3.00;1.43;;;18.80;99.90;;;;;;5105457;28;20985;-38
2022/10/23 12:09:40;;;;;;;1.17;1.00;;;18.80;99.90;;;;;;5112406;28;21010;-38
2022/10/23 12:12:06;;;;;;;4.13;1.80;;;18.90;99.90;;;;;;5112536;28;20413;-38
2022/10/23 12:14:49;;;;;;;6.00;1.33;;;18.80;99.90;;;;;;5112150;28;20406;-38
2022/10/23 12:17:21;;;;;;;4.77;1.43;;;18.80;99.90;;;;;;5112370;28;20179;-38
2022/10/23 12:19:52;;;;;;;3.13;1.57;;;18.80;99.90;;;;;;5111906;28;20444;-38
2022/10/23 12:22:21;;;;;;;2.17;1.23;;;18.80;99.90;;;;;;5110901;28;20405;-37
2022/10/23 12:25:11;;;;;;;3.13;1.47;;;18.90;99.90;;;;;;5111987;28;20418;-38
2022/10/23 12:27:55;;;;;;;1.40;1.17;;;18.90;99.90;;;;;;5112365;28;20456;-38
2022/10/23 12:30:35;;;;;;;5.17;1.70;;;18.90;99.90;;;;;;5111850;28;20535;-38
2022/10/23 12:33:24;;;;;;;2.17;1.53;;;18.90;99.90;;;;;;5112076;28;20410;-38
2022/10/23 12:36:16;;;;;;;2.93;1.33;;;18.90;99.90;;;;;;5111553;28;20414;-37
2022/10/23 12:38:47;;;;;;;1.90;1.70;;;19.00;99.90;;;;;;5111745;28;21072;-37
2022/10/23 12:41:26;;;;;;;3.20;2.00;;;19.10;99.90;;;;;;5111849;28;20754;-38
2022/10/23 12:44:03;;;;;;;4.83;1.67;;;19.20;99.90;;;;;;5111679;28;20816;-37
2022/10/23 12:46:39;;;;;;;3.67;2.03;;;19.20;99.90;;;;;;5110286;28;21125;-38
2022/10/23 12:49:17;;;;;;;5.47;2.20;;;19.30;99.90;;;;;;5111572;28;20772;-39
2022/10/23 12:51:43;;;;;;;3.30;2.00;;;19.30;99.90;;;;;;5111775;28;21148;-38
2022/10/23 12:54:18;;;;;;;2.90;1.70;;;19.40;99.90;;;;;;5111178;28;20467;-38
2022/10/23 12:56:44;;;;;;;2.47;1.80;;;19.40;99.90;;;;;;5110174;28;20543;-39
2022/10/23 12:59:37;;;;;;;4.60;1.77;;;19.50;99.90;;;;;;5111224;28;20911;-38
2022/10/23 13:02:21;;;;;;;3.47;1.43;;;19.40;99.90;;;;;;5099328;28;20513;-37
2022/10/23 13:04:48;;;;;;;3.53;2.27;;;19.50;99.90;;;;;;5111436;28;20496;-38
2022/10/23 13:07:19;;;;;;;2.20;1.93;;;19.40;99.90;;;;;;5111092;28;20465;-38
2022/10/23 13:09:45;;;;;;;3.90;1.90;;;19.40;99.90;;;;;;5110969;28;20430;-39
2022/10/23 13:12:32;;;;;;;5.40;2.17;;;19.50;99.90;;;;;;5111274;28;20987;-38